sensor_id;sensor_type;location;lat;lon;timestamp;P1;durP1;ratioP1;P2;durP2;ratioP2
51654;SDS011;37732;53.106;7.030;2023-11-19T00:02:13;34.28;;;24.80;;
51654;SDS011;37732;53.106;7.030;2023-11-19T00:04:39;31.38;;;22.30;;
51654;SDS011;37732;53.106;7.030;2023-11-19T00:07:05;40.75;;;27.65;;
51654;SDS011;37732;53.106;7.030;2023-11-19T00:09:35;36.65;;;24.70;;
51654;SDS011;37732;53.106;7.030;2023-11-19T00:12:03;35.97;;;24.33;;
51654;SDS011;37732;53.106;7.030;2023-11-19T00:14:29;36.83;;;26.45;;
51654;SDS011;37732;53.106;7.030;2023-11-19T00:16:55;33.95;;;22.00;;
51654;SDS011;37732;53.106;7.030;2023-11-19T00:19:21;33.65;;;23.55;;
51654;SDS011;37732;53.106;7.030;2023-11-19T00:21:47;32.03;;;24.25;;
51654;SDS011;37732;53.106;7.030;2023-11-19T00:24:13;27.60;;;21.83;;
51654;SDS011;37732;53.106;7.030;2023-11-19T00:26:41;31.52;;;22.90;;
51654;SDS011;37732;53.106;7.030;2023-11-19T00:29:07;28.90;;;19.67;;
51654;SDS011;37732;53.106;7.030;2023-11-19T00:31:33;26.10;;;19.77;;
51654;SDS011;37732;53.106;7.030;2023-11-19T00:33:58;31.27;;;20.15;;
51654;SDS011;37732;53.106;7.030;2023-11-19T00:36:24;26.98;;;20.02;;
51654;SDS011;37732;53.106;7.030;2023-11-19T00:38:50;25.17;;;19.13;;
51654;SDS011;37732;53.106;7.030;2023-11-19T00:41:19;30.75;;;21.15;;
51654;SDS011;37732;53.106;7.030;2023-11-19T00:43:45;28.90;;;21.73;;
51654;SDS011;37732;53.106;7.030;2023-11-19T00:46:11;25.20;;;18.33;;
51654;SDS011;37732;53.106;7.030;2023-11-19T00:48:37;24.42;;;19.17;;
51654;SDS011;37732;53.106;7.030;2023-11-19T00:51:03;31.33;;;21.55;;
51654;SDS011;37732;53.106;7.030;2023-11-19T00:53:29;22.73;;;16.77;;
51654;SDS011;37732;53.106;7.030;2023-11-19T00:55:55;25.88;;;20.13;;
51654;SDS011;37732;53.106;7.030;2023-11-19T00:58:21;26.85;;;19.48;;
51654;SDS011;37732;53.106;7.030;2023-11-19T01:00:47;24.02;;;17.20;;
51654;SDS011;37732;53.106;7.030;2023-11-19T01:03:12;26.08;;;18.58;;
51654;SDS011;37732;53.106;7.030;2023-11-19T01:05:39;26.63;;;18.65;;
51654;SDS011;37732;53.106;7.030;2023-11-19T01:08:06;31.13;;;19.77;;
51654;SDS011;37732;53.106;7.030;2023-11-19T01:10:31;29.52;;;19.98;;
51654;SDS011;37732;53.106;7.030;2023-11-19T01:12:57;26.98;;;20.15;;
51654;SDS011;37732;53.106;7.030;2023-11-19T01:15:23;36.90;;;22.10;;
51654;SDS011;37732;53.106;7.030;2023-11-19T01:17:49;34.38;;;24.10;;
51654;SDS011;37732;53.106;7.030;2023-11-19T01:20:14;29.08;;;20.52;;
51654;SDS011;37732;53.106;7.030;2023-11-19T01:22:40;34.10;;;21.10;;
51654;SDS011;37732;53.106;7.030;2023-11-19T01:25:06;33.67;;;21.92;;
51654;SDS011;37732;53.106;7.030;2023-11-19T01:27:32;31.90;;;22.58;;
51654;SDS011;37732;53.106;7.030;2023-11-19T01:30:01;34.65;;;20.25;;
51654;SDS011;37732;53.106;7.030;2023-11-19T01:32:34;37.97;;;25.10;;
51654;SDS011;37732;53.106;7.030;2023-11-19T01:35:02;40.85;;;22.83;;
51654;SDS011;37732;53.106;7.030;2023-11-19T01:37:29;26.90;;;19.30;;
51654;SDS011;37732;53.106;7.030;2023-11-19T01:39:54;35.58;;;23.58;;
51654;SDS011;37732;53.106;7.030;2023-11-19T01:42:20;40.20;;;21.55;;
51654;SDS011;37732;53.106;7.030;2023-11-19T01:44:59;39.78;;;16.80;;
51654;SDS011;37732;53.106;7.030;2023-11-19T01:47:25;38.88;;;19.67;;
51654;SDS011;37732;53.106;7.030;2023-11-19T01:49:52;27.67;;;14.30;;
51654;SDS011;37732;53.106;7.030;2023-11-19T01:52:18;37.63;;;16.20;;
51654;SDS011;37732;53.106;7.030;2023-11-19T01:54:45;32.95;;;14.48;;
51654;SDS011;37732;53.106;7.030;2023-11-19T01:57:12;40.63;;;14.80;;
51654;SDS011;37732;53.106;7.030;2023-11-19T01:59:38;30.33;;;12.70;;
51654;SDS011;37732;53.106;7.030;2023-11-19T02:02:05;31.67;;;12.43;;
51654;SDS011;37732;53.106;7.030;2023-11-19T02:04:32;26.08;;;12.25;;
51654;SDS011;37732;53.106;7.030;2023-11-19T02:06:59;29.90;;;13.25;;
51654;SDS011;37732;53.106;7.030;2023-11-19T02:09:25;28.73;;;10.35;;
51654;SDS011;37732;53.106;7.030;2023-11-19T02:11:52;30.67;;;11.13;;
51654;SDS011;37732;53.106;7.030;2023-11-19T02:14:19;35.80;;;11.88;;
51654;SDS011;37732;53.106;7.030;2023-11-19T02:16:49;29.77;;;11.25;;
51654;SDS011;37732;53.106;7.030;2023-11-19T02:19:15;26.70;;;11.50;;
51654;SDS011;37732;53.106;7.030;2023-11-19T02:21:41;28.85;;;10.98;;
51654;SDS011;37732;53.106;7.030;2023-11-19T02:24:07;28.15;;;8.73;;
51654;SDS011;37732;53.106;7.030;2023-11-19T02:26:59;24.77;;;10.55;;
51654;SDS011;37732;53.106;7.030;2023-11-19T02:29:33;29.00;;;10.23;;
51654;SDS011;37732;53.106;7.030;2023-11-19T02:32:00;38.05;;;10.00;;
51654;SDS011;37732;53.106;7.030;2023-11-19T02:34:28;36.42;;;10.48;;
51654;SDS011;37732;53.106;7.030;2023-11-19T02:36:54;38.75;;;11.70;;
51654;SDS011;37732;53.106;7.030;2023-11-19T02:39:19;32.15;;;10.30;;
51654;SDS011;37732;53.106;7.030;2023-11-19T02:41:47;25.83;;;10.18;;
51654;SDS011;37732;53.106;7.030;2023-11-19T02:44:16;27.85;;;10.30;;
51654;SDS011;37732;53.106;7.030;2023-11-19T02:46:42;31.23;;;10.52;;
51654;SDS011;37732;53.106;7.030;2023-11-19T02:49:07;26.67;;;9.27;;
51654;SDS011;37732;53.106;7.030;2023-11-19T02:51:33;31.40;;;10.77;;
51654;SDS011;37732;53.106;7.030;2023-11-19T02:54:00;24.75;;;8.68;;
51654;SDS011;37732;53.106;7.030;2023-11-19T02:56:25;28.27;;;9.88;;
51654;SDS011;37732;53.106;7.030;2023-11-19T02:58:51;40.65;;;10.43;;
51654;SDS011;37732;53.106;7.030;2023-11-19T03:01:26;32.45;;;9.32;;
51654;SDS011;37732;53.106;7.030;2023-11-19T03:03:55;25.02;;;9.40;;
51654;SDS011;37732;53.106;7.030;2023-11-19T03:06:26;27.60;;;10.15;;
51654;SDS011;37732;53.106;7.030;2023-11-19T03:08:52;25.85;;;9.10;;
51654;SDS011;37732;53.106;7.030;2023-11-19T03:11:18;26.33;;;9.73;;
51654;SDS011;37732;53.106;7.030;2023-11-19T03:13:43;30.67;;;10.80;;
51654;SDS011;37732;53.106;7.030;2023-11-19T03:16:09;28.98;;;9.82;;
51654;SDS011;37732;53.106;7.030;2023-11-19T03:18:36;29.67;;;9.77;;
51654;SDS011;37732;53.106;7.030;2023-11-19T03:21:04;26.25;;;8.88;;
51654;SDS011;37732;53.106;7.030;2023-11-19T03:23:31;24.17;;;10.15;;
51654;SDS011;37732;53.106;7.030;2023-11-19T03:25:56;23.25;;;9.05;;
51654;SDS011;37732;53.106;7.030;2023-11-19T03:28:22;31.42;;;10.02;;
51654;SDS011;37732;53.106;7.030;2023-11-19T03:30:48;29.20;;;10.10;;
51654;SDS011;37732;53.106;7.030;2023-11-19T03:33:13;29.38;;;10.23;;
51654;SDS011;37732;53.106;7.030;2023-11-19T03:35:39;28.88;;;8.80;;
51654;SDS011;37732;53.106;7.030;2023-11-19T03:38:06;25.83;;;9.68;;
51654;SDS011;37732;53.106;7.030;2023-11-19T03:40:32;28.92;;;9.50;;
51654;SDS011;37732;53.106;7.030;2023-11-19T03:42:57;26.92;;;9.27;;
51654;SDS011;37732;53.106;7.030;2023-11-19T03:45:23;27.17;;;8.93;;
51654;SDS011;37732;53.106;7.030;2023-11-19T03:47:50;36.03;;;10.40;;
51654;SDS011;37732;53.106;7.030;2023-11-19T03:50:16;26.48;;;8.93;;
51654;SDS011;37732;53.106;7.030;2023-11-19T03:52:43;25.05;;;9.18;;
51654;SDS011;37732;53.106;7.030;2023-11-19T03:55:08;32.60;;;10.48;;
51654;SDS011;37732;53.106;7.030;2023-11-19T03:57:34;25.58;;;9.57;;
51654;SDS011;37732;53.106;7.030;2023-11-19T04:00:01;29.85;;;9.38;;
51654;SDS011;37732;53.106;7.030;2023-11-19T04:02:34;27.58;;;9.10;;
51654;SDS011;37732;53.106;7.030;2023-11-19T04:05:00;29.75;;;9.23;;
51654;SDS011;37732;53.106;7.030;2023-11-19T04:07:26;29.55;;;10.10;;
51654;SDS011;37732;53.106;7.030;2023-11-19T04:09:52;26.38;;;9.95;;
51654;SDS011;37732;53.106;7.030;2023-11-19T04:12:17;32.42;;;10.77;;
51654;SDS011;37732;53.106;7.030;2023-11-19T04:14:43;23.40;;;9.13;;
51654;SDS011;37732;53.106;7.030;2023-11-19T04:17:09;33.05;;;9.20;;
51654;SDS011;37732;53.106;7.030;2023-11-19T04:19:35;33.45;;;9.95;;
51654;SDS011;37732;53.106;7.030;2023-11-19T04:22:01;27.98;;;9.32;;
51654;SDS011;37732;53.106;7.030;2023-11-19T04:24:27;29.90;;;9.98;;
51654;SDS011;37732;53.106;7.030;2023-11-19T04:26:53;24.90;;;9.82;;
51654;SDS011;37732;53.106;7.030;2023-11-19T04:29:18;21.10;;;8.15;;
51654;SDS011;37732;53.106;7.030;2023-11-19T04:31:44;33.90;;;8.60;;
51654;SDS011;37732;53.106;7.030;2023-11-19T04:34:11;28.98;;;9.45;;
51654;SDS011;37732;53.106;7.030;2023-11-19T04:36:37;27.77;;;10.18;;
51654;SDS011;37732;53.106;7.030;2023-11-19T04:39:03;28.83;;;9.27;;
51654;SDS011;37732;53.106;7.030;2023-11-19T04:41:47;29.50;;;10.27;;
51654;SDS011;37732;53.106;7.030;2023-11-19T04:44:14;30.42;;;10.07;;
51654;SDS011;37732;53.106;7.030;2023-11-19T04:46:41;33.65;;;11.57;;
51654;SDS011;37732;53.106;7.030;2023-11-19T04:49:09;30.02;;;9.20;;
51654;SDS011;37732;53.106;7.030;2023-11-19T04:51:42;28.98;;;10.40;;
51654;SDS011;37732;53.106;7.030;2023-11-19T04:54:09;39.03;;;11.15;;
51654;SDS011;37732;53.106;7.030;2023-11-19T04:56:38;31.83;;;10.77;;
51654;SDS011;37732;53.106;7.030;2023-11-19T04:59:04;22.48;;;8.40;;
51654;SDS011;37732;53.106;7.030;2023-11-19T05:01:34;25.17;;;8.65;;
51654;SDS011;37732;53.106;7.030;2023-11-19T05:04:00;27.65;;;10.02;;
51654;SDS011;37732;53.106;7.030;2023-11-19T05:06:30;33.33;;;9.98;;
51654;SDS011;37732;53.106;7.030;2023-11-19T05:08:57;34.50;;;11.77;;
51654;SDS011;37732;53.106;7.030;2023-11-19T05:11:26;31.17;;;9.55;;
51654;SDS011;37732;53.106;7.030;2023-11-19T05:13:53;37.55;;;9.60;;
51654;SDS011;37732;53.106;7.030;2023-11-19T05:16:19;29.80;;;10.65;;
51654;SDS011;37732;53.106;7.030;2023-11-19T05:18:46;37.50;;;10.85;;
51654;SDS011;37732;53.106;7.030;2023-11-19T05:21:11;29.48;;;9.82;;
51654;SDS011;37732;53.106;7.030;2023-11-19T05:23:37;30.83;;;9.93;;
51654;SDS011;37732;53.106;7.030;2023-11-19T05:26:04;29.13;;;10.02;;
51654;SDS011;37732;53.106;7.030;2023-11-19T05:28:30;29.80;;;8.68;;
51654;SDS011;37732;53.106;7.030;2023-11-19T05:30:56;37.50;;;12.30;;
51654;SDS011;37732;53.106;7.030;2023-11-19T05:33:22;38.78;;;11.50;;
51654;SDS011;37732;53.106;7.030;2023-11-19T05:35:48;28.00;;;9.15;;
51654;SDS011;37732;53.106;7.030;2023-11-19T05:38:14;28.50;;;10.25;;
51654;SDS011;37732;53.106;7.030;2023-11-19T05:40:40;35.83;;;10.73;;
51654;SDS011;37732;53.106;7.030;2023-11-19T05:43:06;36.08;;;10.88;;
51654;SDS011;37732;53.106;7.030;2023-11-19T05:45:32;36.10;;;10.88;;
51654;SDS011;37732;53.106;7.030;2023-11-19T05:47:58;31.48;;;10.63;;
51654;SDS011;37732;53.106;7.030;2023-11-19T05:50:24;33.75;;;12.45;;
51654;SDS011;37732;53.106;7.030;2023-11-19T05:52:52;38.03;;;10.45;;
51654;SDS011;37732;53.106;7.030;2023-11-19T05:55:18;30.27;;;11.10;;
51654;SDS011;37732;53.106;7.030;2023-11-19T05:57:44;38.15;;;11.52;;
51654;SDS011;37732;53.106;7.030;2023-11-19T06:00:10;33.60;;;11.07;;
51654;SDS011;37732;53.106;7.030;2023-11-19T06:02:38;35.45;;;11.65;;
51654;SDS011;37732;53.106;7.030;2023-11-19T06:05:04;34.97;;;11.43;;
51654;SDS011;37732;53.106;7.030;2023-11-19T06:07:34;38.40;;;12.80;;
51654;SDS011;37732;53.106;7.030;2023-11-19T06:10:02;32.35;;;10.05;;
51654;SDS011;37732;53.106;7.030;2023-11-19T06:12:32;35.83;;;10.55;;
51654;SDS011;37732;53.106;7.030;2023-11-19T06:15:06;38.42;;;11.95;;
51654;SDS011;37732;53.106;7.030;2023-11-19T06:17:33;31.88;;;10.85;;
51654;SDS011;37732;53.106;7.030;2023-11-19T06:19:59;38.97;;;12.27;;
51654;SDS011;37732;53.106;7.030;2023-11-19T06:22:25;37.33;;;11.70;;
51654;SDS011;37732;53.106;7.030;2023-11-19T06:24:50;32.83;;;11.63;;
51654;SDS011;37732;53.106;7.030;2023-11-19T06:27:16;38.80;;;10.85;;
51654;SDS011;37732;53.106;7.030;2023-11-19T06:29:42;40.05;;;11.38;;
51654;SDS011;37732;53.106;7.030;2023-11-19T06:32:07;30.90;;;10.90;;
51654;SDS011;37732;53.106;7.030;2023-11-19T06:34:33;32.42;;;11.88;;
51654;SDS011;37732;53.106;7.030;2023-11-19T06:36:59;28.60;;;10.25;;
51654;SDS011;37732;53.106;7.030;2023-11-19T06:39:25;39.17;;;10.45;;
51654;SDS011;37732;53.106;7.030;2023-11-19T06:41:51;29.70;;;10.80;;
51654;SDS011;37732;53.106;7.030;2023-11-19T06:44:17;39.00;;;11.43;;
51654;SDS011;37732;53.106;7.030;2023-11-19T06:46:43;36.78;;;11.82;;
51654;SDS011;37732;53.106;7.030;2023-11-19T06:49:08;33.97;;;11.52;;
51654;SDS011;37732;53.106;7.030;2023-11-19T06:51:34;36.78;;;11.48;;
51654;SDS011;37732;53.106;7.030;2023-11-19T06:54:00;37.42;;;10.82;;
51654;SDS011;37732;53.106;7.030;2023-11-19T06:56:26;30.83;;;11.30;;
51654;SDS011;37732;53.106;7.030;2023-11-19T06:58:52;32.38;;;11.05;;
51654;SDS011;37732;53.106;7.030;2023-11-19T07:01:18;34.13;;;10.98;;
51654;SDS011;37732;53.106;7.030;2023-11-19T07:03:44;33.00;;;11.70;;
51654;SDS011;37732;53.106;7.030;2023-11-19T07:06:11;34.13;;;11.05;;
51654;SDS011;37732;53.106;7.030;2023-11-19T07:08:38;38.92;;;11.50;;
51654;SDS011;37732;53.106;7.030;2023-11-19T07:11:06;31.65;;;9.40;;
51654;SDS011;37732;53.106;7.030;2023-11-19T07:13:31;30.25;;;9.60;;
51654;SDS011;37732;53.106;7.030;2023-11-19T07:15:57;30.05;;;9.88;;
51654;SDS011;37732;53.106;7.030;2023-11-19T07:18:23;37.58;;;12.02;;
51654;SDS011;37732;53.106;7.030;2023-11-19T07:20:50;42.22;;;11.80;;
51654;SDS011;37732;53.106;7.030;2023-11-19T07:23:15;31.30;;;9.90;;
51654;SDS011;37732;53.106;7.030;2023-11-19T07:25:44;31.45;;;11.23;;
51654;SDS011;37732;53.106;7.030;2023-11-19T07:28:15;30.95;;;10.55;;
51654;SDS011;37732;53.106;7.030;2023-11-19T07:30:41;38.35;;;11.75;;
51654;SDS011;37732;53.106;7.030;2023-11-19T07:33:07;28.95;;;10.77;;
51654;SDS011;37732;53.106;7.030;2023-11-19T07:35:33;29.40;;;11.10;;
51654;SDS011;37732;53.106;7.030;2023-11-19T07:37:59;28.73;;;10.48;;
51654;SDS011;37732;53.106;7.030;2023-11-19T07:40:24;30.75;;;11.07;;
51654;SDS011;37732;53.106;7.030;2023-11-19T07:42:50;38.83;;;11.38;;
51654;SDS011;37732;53.106;7.030;2023-11-19T07:45:16;33.65;;;10.85;;
51654;SDS011;37732;53.106;7.030;2023-11-19T07:47:42;34.38;;;10.70;;
51654;SDS011;37732;53.106;7.030;2023-11-19T07:50:11;44.28;;;14.90;;
51654;SDS011;37732;53.106;7.030;2023-11-19T07:52:39;35.00;;;10.50;;
51654;SDS011;37732;53.106;7.030;2023-11-19T07:55:05;35.25;;;10.98;;
51654;SDS011;37732;53.106;7.030;2023-11-19T07:57:31;35.72;;;11.07;;
51654;SDS011;37732;53.106;7.030;2023-11-19T07:59:57;32.03;;;11.95;;
51654;SDS011;37732;53.106;7.030;2023-11-19T08:02:23;31.80;;;10.70;;
51654;SDS011;37732;53.106;7.030;2023-11-19T08:04:49;27.88;;;9.77;;
51654;SDS011;37732;53.106;7.030;2023-11-19T08:07:17;34.75;;;10.50;;
51654;SDS011;37732;53.106;7.030;2023-11-19T08:09:47;43.35;;;10.80;;
51654;SDS011;37732;53.106;7.030;2023-11-19T08:12:13;35.22;;;9.85;;
51654;SDS011;37732;53.106;7.030;2023-11-19T08:14:42;28.42;;;11.15;;
51654;SDS011;37732;53.106;7.030;2023-11-19T08:17:09;30.95;;;10.75;;
51654;SDS011;37732;53.106;7.030;2023-11-19T08:19:35;36.33;;;11.50;;
51654;SDS011;37732;53.106;7.030;2023-11-19T08:22:00;32.58;;;10.32;;
51654;SDS011;37732;53.106;7.030;2023-11-19T08:24:27;31.02;;;10.15;;
51654;SDS011;37732;53.106;7.030;2023-11-19T08:26:53;37.13;;;12.15;;
51654;SDS011;37732;53.106;7.030;2023-11-19T08:29:19;30.15;;;10.07;;
51654;SDS011;37732;53.106;7.030;2023-11-19T08:31:44;27.50;;;10.18;;
51654;SDS011;37732;53.106;7.030;2023-11-19T08:34:11;34.63;;;11.50;;
51654;SDS011;37732;53.106;7.030;2023-11-19T08:36:36;30.98;;;10.55;;
51654;SDS011;37732;53.106;7.030;2023-11-19T08:39:02;37.30;;;11.10;;
51654;SDS011;37732;53.106;7.030;2023-11-19T08:41:28;37.90;;;11.27;;
51654;SDS011;37732;53.106;7.030;2023-11-19T08:43:54;39.28;;;10.93;;
51654;SDS011;37732;53.106;7.030;2023-11-19T08:46:19;35.20;;;10.88;;
51654;SDS011;37732;53.106;7.030;2023-11-19T08:48:45;36.25;;;10.88;;
51654;SDS011;37732;53.106;7.030;2023-11-19T08:51:11;27.58;;;10.48;;
51654;SDS011;37732;53.106;7.030;2023-11-19T08:53:38;30.50;;;11.50;;
51654;SDS011;37732;53.106;7.030;2023-11-19T08:56:04;31.73;;;11.85;;
51654;SDS011;37732;53.106;7.030;2023-11-19T08:58:30;30.80;;;10.68;;
51654;SDS011;37732;53.106;7.030;2023-11-19T09:00:56;37.95;;;10.40;;
51654;SDS011;37732;53.106;7.030;2023-11-19T09:03:22;34.70;;;10.13;;
51654;SDS011;37732;53.106;7.030;2023-11-19T09:05:48;40.08;;;10.82;;
51654;SDS011;37732;53.106;7.030;2023-11-19T09:08:14;39.78;;;11.88;;
51654;SDS011;37732;53.106;7.030;2023-11-19T09:10:40;30.10;;;10.85;;
51654;SDS011;37732;53.106;7.030;2023-11-19T09:13:05;47.13;;;10.95;;
51654;SDS011;37732;53.106;7.030;2023-11-19T09:15:31;41.05;;;11.52;;
51654;SDS011;37732;53.106;7.030;2023-11-19T09:17:57;34.17;;;11.15;;
51654;SDS011;37732;53.106;7.030;2023-11-19T09:20:22;34.13;;;11.40;;
51654;SDS011;37732;53.106;7.030;2023-11-19T09:22:48;35.38;;;10.60;;
51654;SDS011;37732;53.106;7.030;2023-11-19T09:25:14;40.13;;;11.85;;
51654;SDS011;37732;53.106;7.030;2023-11-19T09:27:43;36.47;;;11.30;;
51654;SDS011;37732;53.106;7.030;2023-11-19T09:30:09;39.38;;;11.43;;
51654;SDS011;37732;53.106;7.030;2023-11-19T09:32:35;30.10;;;11.65;;
51654;SDS011;37732;53.106;7.030;2023-11-19T09:35:02;38.20;;;12.70;;
51654;SDS011;37732;53.106;7.030;2023-11-19T09:37:28;34.88;;;11.80;;
51654;SDS011;37732;53.106;7.030;2023-11-19T09:39:54;29.67;;;10.90;;
51654;SDS011;37732;53.106;7.030;2023-11-19T09:42:20;36.30;;;11.55;;
51654;SDS011;37732;53.106;7.030;2023-11-19T09:44:46;37.92;;;11.98;;
51654;SDS011;37732;53.106;7.030;2023-11-19T09:47:13;37.85;;;12.27;;
51654;SDS011;37732;53.106;7.030;2023-11-19T09:49:41;41.05;;;11.60;;
51654;SDS011;37732;53.106;7.030;2023-11-19T09:52:08;38.22;;;12.35;;
51654;SDS011;37732;53.106;7.030;2023-11-19T09:54:34;45.60;;;11.88;;
51654;SDS011;37732;53.106;7.030;2023-11-19T09:57:00;36.50;;;11.93;;
51654;SDS011;37732;53.106;7.030;2023-11-19T09:59:30;35.90;;;11.48;;
51654;SDS011;37732;53.106;7.030;2023-11-19T10:01:58;37.38;;;11.52;;
51654;SDS011;37732;53.106;7.030;2023-11-19T10:04:24;34.85;;;11.07;;
51654;SDS011;37732;53.106;7.030;2023-11-19T10:06:54;33.85;;;11.43;;
51654;SDS011;37732;53.106;7.030;2023-11-19T10:09:20;39.92;;;12.77;;
51654;SDS011;37732;53.106;7.030;2023-11-19T10:11:45;32.83;;;10.80;;
51654;SDS011;37732;53.106;7.030;2023-11-19T10:14:11;36.20;;;11.65;;
51654;SDS011;37732;53.106;7.030;2023-11-19T10:16:38;28.70;;;9.88;;
51654;SDS011;37732;53.106;7.030;2023-11-19T10:19:04;27.52;;;10.63;;
51654;SDS011;37732;53.106;7.030;2023-11-19T10:21:32;36.50;;;12.07;;
51654;SDS011;37732;53.106;7.030;2023-11-19T10:23:59;30.65;;;10.13;;
51654;SDS011;37732;53.106;7.030;2023-11-19T10:26:27;29.77;;;9.80;;
51654;SDS011;37732;53.106;7.030;2023-11-19T10:28:53;37.75;;;10.20;;
51654;SDS011;37732;53.106;7.030;2023-11-19T10:31:21;33.15;;;10.60;;
51654;SDS011;37732;53.106;7.030;2023-11-19T10:33:50;37.20;;;11.45;;
51654;SDS011;37732;53.106;7.030;2023-11-19T10:36:16;27.35;;;9.95;;
51654;SDS011;37732;53.106;7.030;2023-11-19T10:38:51;33.28;;;10.48;;
51654;SDS011;37732;53.106;7.030;2023-11-19T10:41:30;33.03;;;10.57;;
51654;SDS011;37732;53.106;7.030;2023-11-19T10:43:57;33.05;;;11.13;;
51654;SDS011;37732;53.106;7.030;2023-11-19T10:46:23;42.65;;;12.43;;
51654;SDS011;37732;53.106;7.030;2023-11-19T10:49:06;40.28;;;11.68;;
51654;SDS011;37732;53.106;7.030;2023-11-19T10:51:35;33.10;;;11.50;;
51654;SDS011;37732;53.106;7.030;2023-11-19T10:54:02;33.58;;;10.88;;
51654;SDS011;37732;53.106;7.030;2023-11-19T10:56:31;36.38;;;11.07;;
51654;SDS011;37732;53.106;7.030;2023-11-19T10:58:58;32.03;;;9.88;;
51654;SDS011;37732;53.106;7.030;2023-11-19T11:01:26;32.22;;;10.90;;
51654;SDS011;37732;53.106;7.030;2023-11-19T11:03:59;34.75;;;10.88;;
51654;SDS011;37732;53.106;7.030;2023-11-19T11:06:26;31.27;;;9.68;;
51654;SDS011;37732;53.106;7.030;2023-11-19T11:08:52;37.28;;;11.98;;
51654;SDS011;37732;53.106;7.030;2023-11-19T11:11:20;47.30;;;13.32;;
51654;SDS011;37732;53.106;7.030;2023-11-19T11:13:48;39.13;;;11.55;;
51654;SDS011;37732;53.106;7.030;2023-11-19T11:16:18;33.90;;;9.88;;
51654;SDS011;37732;53.106;7.030;2023-11-19T11:18:45;33.90;;;10.35;;
51654;SDS011;37732;53.106;7.030;2023-11-19T11:21:15;32.13;;;10.20;;
51654;SDS011;37732;53.106;7.030;2023-11-19T11:29:05;27.85;;;8.93;;
51654;SDS011;37732;53.106;7.030;2023-11-19T11:39:51;26.35;;;8.93;;
51654;SDS011;37732;53.106;7.030;2023-11-19T11:50:11;37.85;;;11.02;;
51654;SDS011;37732;53.106;7.030;2023-11-19T11:53:13;34.72;;;10.35;;
51654;SDS011;37732;53.106;7.030;2023-11-19T11:55:27;32.28;;;10.57;;
51654;SDS011;37732;53.106;7.030;2023-11-19T11:57:54;23.15;;;8.95;;
51654;SDS011;37732;53.106;7.030;2023-11-19T12:03:04;32.53;;;9.90;;
51654;SDS011;37732;53.106;7.030;2023-11-19T12:05:32;31.40;;;8.85;;
51654;SDS011;37732;53.106;7.030;2023-11-19T12:08:02;28.40;;;10.30;;
51654;SDS011;37732;53.106;7.030;2023-11-19T12:10:30;27.63;;;10.18;;
51654;SDS011;37732;53.106;7.030;2023-11-19T12:13:00;30.13;;;10.57;;
51654;SDS011;37732;53.106;7.030;2023-11-19T12:15:26;31.20;;;11.70;;
51654;SDS011;37732;53.106;7.030;2023-11-19T12:17:56;30.42;;;10.07;;
51654;SDS011;37732;53.106;7.030;2023-11-19T12:20:22;24.98;;;8.52;;
51654;SDS011;37732;53.106;7.030;2023-11-19T12:22:49;21.08;;;8.75;;
51654;SDS011;37732;53.106;7.030;2023-11-19T12:25:16;25.23;;;8.48;;
51654;SDS011;37732;53.106;7.030;2023-11-19T12:27:48;30.75;;;8.57;;
51654;SDS011;37732;53.106;7.030;2023-11-19T12:32:50;25.85;;;9.63;;
51654;SDS011;37732;53.106;7.030;2023-11-19T12:35:18;28.95;;;8.82;;
51654;SDS011;37732;53.106;7.030;2023-11-19T12:37:48;29.00;;;9.50;;
51654;SDS011;37732;53.106;7.030;2023-11-19T12:40:19;29.55;;;10.57;;
51654;SDS011;37732;53.106;7.030;2023-11-19T12:42:50;36.33;;;11.02;;
51654;SDS011;37732;53.106;7.030;2023-11-19T12:45:17;36.28;;;10.70;;
51654;SDS011;37732;53.106;7.030;2023-11-19T12:47:45;34.85;;;10.43;;
51654;SDS011;37732;53.106;7.030;2023-11-19T12:50:15;29.92;;;10.52;;
51654;SDS011;37732;53.106;7.030;2023-11-19T12:52:57;37.70;;;11.00;;
51654;SDS011;37732;53.106;7.030;2023-11-19T12:55:24;43.78;;;11.35;;
51654;SDS011;37732;53.106;7.030;2023-11-19T12:57:54;35.45;;;11.05;;
51654;SDS011;37732;53.106;7.030;2023-11-19T13:00:21;29.70;;;9.70;;
51654;SDS011;37732;53.106;7.030;2023-11-19T13:02:50;29.15;;;10.48;;
51654;SDS011;37732;53.106;7.030;2023-11-19T13:05:27;30.33;;;10.35;;
51654;SDS011;37732;53.106;7.030;2023-11-19T13:08:00;29.52;;;10.60;;
51654;SDS011;37732;53.106;7.030;2023-11-19T13:10:28;42.50;;;10.80;;
51654;SDS011;37732;53.106;7.030;2023-11-19T13:15:27;31.05;;;10.13;;
51654;SDS011;37732;53.106;7.030;2023-11-19T13:17:53;30.88;;;11.52;;
51654;SDS011;37732;53.106;7.030;2023-11-19T13:20:19;35.03;;;9.93;;
51654;SDS011;37732;53.106;7.030;2023-11-19T13:22:59;28.63;;;9.73;;
51654;SDS011;37732;53.106;7.030;2023-11-19T13:25:26;34.67;;;9.82;;
51654;SDS011;37732;53.106;7.030;2023-11-19T13:27:53;35.30;;;10.90;;
51654;SDS011;37732;53.106;7.030;2023-11-19T13:30:19;27.83;;;9.07;;
51654;SDS011;37732;53.106;7.030;2023-11-19T13:32:45;28.00;;;9.63;;
51654;SDS011;37732;53.106;7.030;2023-11-19T13:35:15;38.38;;;10.07;;
51654;SDS011;37732;53.106;7.030;2023-11-19T13:37:42;37.08;;;11.65;;
51654;SDS011;37732;53.106;7.030;2023-11-19T13:40:08;27.73;;;9.40;;
51654;SDS011;37732;53.106;7.030;2023-11-19T13:42:42;26.67;;;8.90;;
51654;SDS011;37732;53.106;7.030;2023-11-19T13:45:12;34.25;;;9.32;;
51654;SDS011;37732;53.106;7.030;2023-11-19T13:47:42;28.25;;;10.40;;
51654;SDS011;37732;53.106;7.030;2023-11-19T13:50:10;35.25;;;10.68;;
51654;SDS011;37732;53.106;7.030;2023-11-19T13:52:38;31.17;;;9.27;;
51654;SDS011;37732;53.106;7.030;2023-11-19T13:55:09;27.38;;;11.45;;
51654;SDS011;37732;53.106;7.030;2023-11-19T13:57:35;33.88;;;10.25;;
51654;SDS011;37732;53.106;7.030;2023-11-19T14:00:05;26.92;;;10.07;;
51654;SDS011;37732;53.106;7.030;2023-11-19T14:02:38;32.45;;;10.15;;
51654;SDS011;37732;53.106;7.030;2023-11-19T14:05:10;27.10;;;9.80;;
51654;SDS011;37732;53.106;7.030;2023-11-19T14:07:37;29.48;;;8.75;;
51654;SDS011;37732;53.106;7.030;2023-11-19T14:10:03;28.17;;;9.95;;
51654;SDS011;37732;53.106;7.030;2023-11-19T14:12:31;30.02;;;9.82;;
51654;SDS011;37732;53.106;7.030;2023-11-19T14:14:57;33.67;;;10.32;;
51654;SDS011;37732;53.106;7.030;2023-11-19T14:17:23;32.55;;;8.57;;
51654;SDS011;37732;53.106;7.030;2023-11-19T14:19:50;33.63;;;9.25;;
51654;SDS011;37732;53.106;7.030;2023-11-19T14:22:16;28.88;;;9.02;;
51654;SDS011;37732;53.106;7.030;2023-11-19T14:24:41;32.00;;;9.20;;
51654;SDS011;37732;53.106;7.030;2023-11-19T14:27:08;29.70;;;9.55;;
51654;SDS011;37732;53.106;7.030;2023-11-19T14:29:35;33.40;;;10.00;;
51654;SDS011;37732;53.106;7.030;2023-11-19T14:32:01;30.70;;;9.52;;
51654;SDS011;37732;53.106;7.030;2023-11-19T14:34:28;26.80;;;8.32;;
51654;SDS011;37732;53.106;7.030;2023-11-19T14:36:59;27.15;;;9.05;;
51654;SDS011;37732;53.106;7.030;2023-11-19T14:39:25;27.20;;;9.20;;
51654;SDS011;37732;53.106;7.030;2023-11-19T14:41:51;30.83;;;9.30;;
51654;SDS011;37732;53.106;7.030;2023-11-19T14:44:18;28.35;;;9.15;;
51654;SDS011;37732;53.106;7.030;2023-11-19T14:46:45;24.00;;;9.32;;
51654;SDS011;37732;53.106;7.030;2023-11-19T14:49:12;34.15;;;9.88;;
51654;SDS011;37732;53.106;7.030;2023-11-19T14:51:39;29.88;;;9.00;;
51654;SDS011;37732;53.106;7.030;2023-11-19T14:54:05;32.70;;;10.35;;
51654;SDS011;37732;53.106;7.030;2023-11-19T14:56:31;26.90;;;9.05;;